sensor_id;sensor_type;location;lat;lon;timestamp;P1;durP1;ratioP1;P2;durP2;ratioP2
79751;SDS011;69234;47.446;21.636;2023-05-16T00:00:21;13.33;;;13.33;;
79751;SDS011;69234;47.446;21.636;2023-05-16T00:00:54;12.77;;;12.73;;
79751;SDS011;69234;47.446;21.636;2023-05-16T00:01:27;13.37;;;13.37;;
79751;SDS011;69234;47.446;21.636;2023-05-16T00:02:00;13.77;;;13.77;;
79751;SDS011;69234;47.446;21.636;2023-05-16T00:02:32;12.67;;;12.67;;
79751;SDS011;69234;47.446;21.636;2023-05-16T00:03:03;13.90;;;13.90;;
79751;SDS011;69234;47.446;21.636;2023-05-16T00:03:35;14.00;;;14.00;;
79751;SDS011;69234;47.446;21.636;2023-05-16T00:04:07;13.53;;;13.53;;
79751;SDS011;69234;47.446;21.636;2023-05-16T00:04:37;13.93;;;13.93;;
79751;SDS011;69234;47.446;21.636;2023-05-16T00:05:08;13.87;;;13.87;;
79751;SDS011;69234;47.446;21.636;2023-05-16T00:05:45;13.80;;;13.80;;
79751;SDS011;69234;47.446;21.636;2023-05-16T00:06:17;13.17;;;13.17;;
79751;SDS011;69234;47.446;21.636;2023-05-16T00:06:47;13.77;;;13.77;;
79751;SDS011;69234;47.446;21.636;2023-05-16T00:07:18;13.43;;;13.43;;
79751;SDS011;69234;47.446;21.636;2023-05-16T00:07:49;13.20;;;13.20;;
79751;SDS011;69234;47.446;21.636;2023-05-16T00:08:20;13.93;;;13.93;;
79751;SDS011;69234;47.446;21.636;2023-05-16T00:08:50;14.17;;;14.17;;
79751;SDS011;69234;47.446;21.636;2023-05-16T00:09:21;13.27;;;13.27;;
79751;SDS011;69234;47.446;21.636;2023-05-16T00:09:52;13.70;;;13.70;;
79751;SDS011;69234;47.446;21.636;2023-05-16T00:10:23;14.03;;;14.03;;
79751;SDS011;69234;47.446;21.636;2023-05-16T00:10:53;13.70;;;13.70;;
79751;SDS011;69234;47.446;21.636;2023-05-16T00:11:24;13.57;;;13.57;;
79751;SDS011;69234;47.446;21.636;2023-05-16T00:11:56;14.13;;;14.13;;
79751;SDS011;69234;47.446;21.636;2023-05-16T00:12:27;13.50;;;13.50;;
79751;SDS011;69234;47.446;21.636;2023-05-16T00:12:58;13.37;;;13.37;;
79751;SDS011;69234;47.446;21.636;2023-05-16T00:13:30;13.90;;;13.90;;
79751;SDS011;69234;47.446;21.636;2023-05-16T00:14:01;13.47;;;13.47;;
79751;SDS011;69234;47.446;21.636;2023-05-16T00:14:33;13.67;;;13.67;;
79751;SDS011;69234;47.446;21.636;2023-05-16T00:15:06;13.17;;;13.17;;
79751;SDS011;69234;47.446;21.636;2023-05-16T00:15:41;13.90;;;13.90;;
79751;SDS011;69234;47.446;21.636;2023-05-16T00:16:13;13.97;;;13.97;;
79751;SDS011;69234;47.446;21.636;2023-05-16T00:16:44;13.00;;;13.00;;
79751;SDS011;69234;47.446;21.636;2023-05-16T00:17:16;13.57;;;13.57;;
79751;SDS011;69234;47.446;21.636;2023-05-16T00:17:49;13.93;;;13.93;;
79751;SDS011;69234;47.446;21.636;2023-05-16T00:18:21;14.00;;;14.00;;
79751;SDS011;69234;47.446;21.636;2023-05-16T00:18:52;13.87;;;13.87;;
79751;SDS011;69234;47.446;21.636;2023-05-16T00:19:22;14.00;;;14.00;;
79751;SDS011;69234;47.446;21.636;2023-05-16T00:19:55;13.50;;;13.50;;
79751;SDS011;69234;47.446;21.636;2023-05-16T00:20:27;14.10;;;14.10;;
79751;SDS011;69234;47.446;21.636;2023-05-16T00:20:59;13.60;;;13.60;;
79751;SDS011;69234;47.446;21.636;2023-05-16T00:21:30;13.87;;;13.87;;
79751;SDS011;69234;47.446;21.636;2023-05-16T00:22:02;13.90;;;13.90;;
79751;SDS011;69234;47.446;21.636;2023-05-16T00:22:33;14.07;;;14.07;;
79751;SDS011;69234;47.446;21.636;2023-05-16T00:23:04;13.83;;;13.83;;
79751;SDS011;69234;47.446;21.636;2023-05-16T00:23:35;13.43;;;13.43;;
79751;SDS011;69234;47.446;21.636;2023-05-16T00:24:05;13.87;;;13.87;;
79751;SDS011;69234;47.446;21.636;2023-05-16T00:24:36;14.03;;;14.03;;
79751;SDS011;69234;47.446;21.636;2023-05-16T00:25:07;13.20;;;13.20;;
79751;SDS011;69234;47.446;21.636;2023-05-16T00:25:38;13.37;;;13.37;;
79751;SDS011;69234;47.446;21.636;2023-05-16T00:26:09;14.27;;;14.27;;
79751;SDS011;69234;47.446;21.636;2023-05-16T00:26:42;14.23;;;14.23;;
79751;SDS011;69234;47.446;21.636;2023-05-16T00:27:13;14.20;;;14.20;;
79751;SDS011;69234;47.446;21.636;2023-05-16T00:27:45;14.10;;;14.10;;
79751;SDS011;69234;47.446;21.636;2023-05-16T00:28:17;13.63;;;13.63;;
79751;SDS011;69234;47.446;21.636;2023-05-16T00:28:47;13.70;;;13.70;;
79751;SDS011;69234;47.446;21.636;2023-05-16T00:29:18;13.53;;;13.53;;
79751;SDS011;69234;47.446;21.636;2023-05-16T00:29:49;13.73;;;13.73;;
79751;SDS011;69234;47.446;21.636;2023-05-16T00:30:21;14.23;;;14.23;;
79751;SDS011;69234;47.446;21.636;2023-05-16T00:30:52;13.63;;;13.60;;
79751;SDS011;69234;47.446;21.636;2023-05-16T00:31:22;13.33;;;13.33;;
79751;SDS011;69234;47.446;21.636;2023-05-16T00:31:55;13.93;;;13.93;;
79751;SDS011;69234;47.446;21.636;2023-05-16T00:32:26;14.33;;;14.20;;
79751;SDS011;69234;47.446;21.636;2023-05-16T00:32:56;13.83;;;13.83;;
79751;SDS011;69234;47.446;21.636;2023-05-16T00:33:27;13.80;;;13.80;;
79751;SDS011;69234;47.446;21.636;2023-05-16T00:33:58;14.17;;;14.17;;
79751;SDS011;69234;47.446;21.636;2023-05-16T00:34:29;14.00;;;14.00;;
79751;SDS011;69234;47.446;21.636;2023-05-16T00:34:59;14.00;;;14.00;;
79751;SDS011;69234;47.446;21.636;2023-05-16T00:35:30;14.17;;;14.17;;
79751;SDS011;69234;47.446;21.636;2023-05-16T00:36:01;13.20;;;13.20;;
79751;SDS011;69234;47.446;21.636;2023-05-16T00:36:32;13.47;;;13.47;;
79751;SDS011;69234;47.446;21.636;2023-05-16T00:37:04;14.23;;;14.23;;
79751;SDS011;69234;47.446;21.636;2023-05-16T00:37:36;14.10;;;14.00;;
79751;SDS011;69234;47.446;21.636;2023-05-16T00:38:07;14.17;;;14.13;;
79751;SDS011;69234;47.446;21.636;2023-05-16T00:38:38;14.57;;;14.57;;
79751;SDS011;69234;47.446;21.636;2023-05-16T00:39:09;13.80;;;13.80;;
79751;SDS011;69234;47.446;21.636;2023-05-16T00:39:40;13.07;;;13.07;;
79751;SDS011;69234;47.446;21.636;2023-05-16T00:40:11;13.53;;;13.53;;
79751;SDS011;69234;47.446;21.636;2023-05-16T00:40:42;13.47;;;13.47;;
79751;SDS011;69234;47.446;21.636;2023-05-16T00:41:13;13.97;;;13.97;;
79751;SDS011;69234;47.446;21.636;2023-05-16T00:41:44;14.00;;;14.00;;
79751;SDS011;69234;47.446;21.636;2023-05-16T00:42:17;14.33;;;14.33;;
79751;SDS011;69234;47.446;21.636;2023-05-16T00:42:49;13.83;;;13.83;;
79751;SDS011;69234;47.446;21.636;2023-05-16T00:43:20;14.07;;;14.07;;
79751;SDS011;69234;47.446;21.636;2023-05-16T00:43:54;13.87;;;13.87;;
79751;SDS011;69234;47.446;21.636;2023-05-16T00:44:24;13.73;;;13.73;;
79751;SDS011;69234;47.446;21.636;2023-05-16T00:44:56;14.07;;;14.07;;
79751;SDS011;69234;47.446;21.636;2023-05-16T00:45:27;14.00;;;14.00;;
79751;SDS011;69234;47.446;21.636;2023-05-16T00:45:57;13.87;;;13.87;;
79751;SDS011;69234;47.446;21.636;2023-05-16T00:46:29;13.83;;;13.83;;
79751;SDS011;69234;47.446;21.636;2023-05-16T00:47:00;14.10;;;14.10;;
79751;SDS011;69234;47.446;21.636;2023-05-16T00:47:32;13.80;;;13.80;;
79751;SDS011;69234;47.446;21.636;2023-05-16T00:48:03;13.70;;;13.70;;
79751;SDS011;69234;47.446;21.636;2023-05-16T00:48:34;13.27;;;13.27;;
79751;SDS011;69234;47.446;21.636;2023-05-16T00:49:05;13.90;;;13.90;;
79751;SDS011;69234;47.446;21.636;2023-05-16T00:49:37;13.37;;;13.37;;
79751;SDS011;69234;47.446;21.636;2023-05-16T00:50:08;14.40;;;14.40;;
79751;SDS011;69234;47.446;21.636;2023-05-16T00:50:40;13.60;;;13.60;;
79751;SDS011;69234;47.446;21.636;2023-05-16T00:51:11;12.97;;;12.97;;
79751;SDS011;69234;47.446;21.636;2023-05-16T00:51:42;13.67;;;13.67;;
79751;SDS011;69234;47.446;21.636;2023-05-16T00:52:13;13.37;;;13.37;;
79751;SDS011;69234;47.446;21.636;2023-05-16T00:52:44;13.57;;;13.57;;
79751;SDS011;69234;47.446;21.636;2023-05-16T00:53:15;13.63;;;13.63;;
79751;SDS011;69234;47.446;21.636;2023-05-16T00:53:46;14.50;;;14.50;;
79751;SDS011;69234;47.446;21.636;2023-05-16T00:54:17;13.23;;;13.23;;
79751;SDS011;69234;47.446;21.636;2023-05-16T00:54:52;12.53;;;12.53;;
79751;SDS011;69234;47.446;21.636;2023-05-16T00:55:24;13.00;;;13.00;;
79751;SDS011;69234;47.446;21.636;2023-05-16T00:55:55;13.13;;;13.13;;
79751;SDS011;69234;47.446;21.636;2023-05-16T00:56:27;12.67;;;12.67;;
79751;SDS011;69234;47.446;21.636;2023-05-16T00:56:58;13.00;;;13.00;;
79751;SDS011;69234;47.446;21.636;2023-05-16T00:57:29;13.43;;;13.43;;
79751;SDS011;69234;47.446;21.636;2023-05-16T00:58:00;13.13;;;13.13;;
79751;SDS011;69234;47.446;21.636;2023-05-16T00:58:31;13.03;;;13.03;;
79751;SDS011;69234;47.446;21.636;2023-05-16T00:59:03;13.00;;;13.00;;
79751;SDS011;69234;47.446;21.636;2023-05-16T00:59:33;13.27;;;13.27;;
79751;SDS011;69234;47.446;21.636;2023-05-16T01:00:05;13.87;;;13.87;;
79751;SDS011;69234;47.446;21.636;2023-05-16T01:00:39;13.27;;;13.27;;
79751;SDS011;69234;47.446;21.636;2023-05-16T01:01:10;13.00;;;13.00;;
79751;SDS011;69234;47.446;21.636;2023-05-16T01:01:42;13.33;;;13.33;;
79751;SDS011;69234;47.446;21.636;2023-05-16T01:02:19;13.37;;;13.37;;
79751;SDS011;69234;47.446;21.636;2023-05-16T01:02:50;12.07;;;12.07;;
79751;SDS011;69234;47.446;21.636;2023-05-16T01:03:22;12.13;;;12.13;;
79751;SDS011;69234;47.446;21.636;2023-05-16T01:03:53;12.90;;;12.90;;
79751;SDS011;69234;47.446;21.636;2023-05-16T01:04:24;12.90;;;12.90;;
79751;SDS011;69234;47.446;21.636;2023-05-16T01:04:57;12.37;;;12.37;;
79751;SDS011;69234;47.446;21.636;2023-05-16T01:05:29;12.47;;;12.47;;
79751;SDS011;69234;47.446;21.636;2023-05-16T01:06:00;12.37;;;12.37;;
79751;SDS011;69234;47.446;21.636;2023-05-16T01:06:31;12.67;;;12.67;;
79751;SDS011;69234;47.446;21.636;2023-05-16T01:07:03;13.13;;;13.13;;
79751;SDS011;69234;47.446;21.636;2023-05-16T01:07:37;13.13;;;13.13;;
79751;SDS011;69234;47.446;21.636;2023-05-16T01:08:10;12.53;;;12.53;;
79751;SDS011;69234;47.446;21.636;2023-05-16T01:08:41;12.43;;;12.43;;
79751;SDS011;69234;47.446;21.636;2023-05-16T01:09:12;12.17;;;12.17;;
79751;SDS011;69234;47.446;21.636;2023-05-16T01:09:43;12.60;;;12.60;;
79751;SDS011;69234;47.446;21.636;2023-05-16T01:10:14;12.93;;;12.93;;
79751;SDS011;69234;47.446;21.636;2023-05-16T01:10:49;12.90;;;12.90;;
79751;SDS011;69234;47.446;21.636;2023-05-16T01:12:01;11.60;;;11.60;;
79751;SDS011;69234;47.446;21.636;2023-05-16T01:14:53;12.90;;;12.90;;
79751;SDS011;69234;47.446;21.636;2023-05-16T01:15:46;12.87;;;12.87;;
79751;SDS011;69234;47.446;21.636;2023-05-16T01:16:58;12.80;;;12.80;;
79751;SDS011;69234;47.446;21.636;2023-05-16T01:17:48;13.07;;;13.07;;
79751;SDS011;69234;47.446;21.636;2023-05-16T01:21:49;13.17;;;13.17;;
79751;SDS011;69234;47.446;21.636;2023-05-16T01:23:04;13.80;;;13.73;;
79751;SDS011;69234;47.446;21.636;2023-05-16T01:24:11;14.10;;;14.10;;
79751;SDS011;69234;47.446;21.636;2023-05-16T01:26:17;12.87;;;12.87;;
79751;SDS011;69234;47.446;21.636;2023-05-16T01:26:52;13.27;;;13.27;;
79751;SDS011;69234;47.446;21.636;2023-05-16T01:27:25;13.53;;;13.53;;
79751;SDS011;69234;47.446;21.636;2023-05-16T01:27:57;13.50;;;13.50;;
79751;SDS011;69234;47.446;21.636;2023-05-16T01:28:30;13.33;;;13.33;;
79751;SDS011;69234;47.446;21.636;2023-05-16T01:29:02;13.00;;;13.00;;
79751;SDS011;69234;47.446;21.636;2023-05-16T01:29:33;13.40;;;13.40;;
79751;SDS011;69234;47.446;21.636;2023-05-16T01:30:12;13.40;;;13.40;;
79751;SDS011;69234;47.446;21.636;2023-05-16T01:30:45;13.03;;;13.03;;
79751;SDS011;69234;47.446;21.636;2023-05-16T01:31:16;13.17;;;13.17;;
79751;SDS011;69234;47.446;21.636;2023-05-16T01:31:48;12.50;;;12.50;;
79751;SDS011;69234;47.446;21.636;2023-05-16T01:32:18;12.90;;;12.90;;
79751;SDS011;69234;47.446;21.636;2023-05-16T01:32:50;13.37;;;13.37;;
79751;SDS011;69234;47.446;21.636;2023-05-16T01:33:20;13.27;;;13.27;;
79751;SDS011;69234;47.446;21.636;2023-05-16T01:33:51;12.97;;;12.97;;
79751;SDS011;69234;47.446;21.636;2023-05-16T01:34:22;13.87;;;13.87;;
79751;SDS011;69234;47.446;21.636;2023-05-16T01:34:53;13.10;;;13.10;;
79751;SDS011;69234;47.446;21.636;2023-05-16T01:35:25;13.27;;;13.27;;
79751;SDS011;69234;47.446;21.636;2023-05-16T01:36:53;12.60;;;12.60;;
79751;SDS011;69234;47.446;21.636;2023-05-16T01:39:36;13.23;;;13.13;;
79751;SDS011;69234;47.446;21.636;2023-05-16T01:40:25;13.33;;;13.30;;
79751;SDS011;69234;47.446;21.636;2023-05-16T01:41:20;13.80;;;13.77;;
79751;SDS011;69234;47.446;21.636;2023-05-16T01:42:08;12.83;;;12.83;;
79751;SDS011;69234;47.446;21.636;2023-05-16T01:42:45;13.93;;;13.93;;
79751;SDS011;69234;47.446;21.636;2023-05-16T01:43:44;13.40;;;13.40;;
79751;SDS011;69234;47.446;21.636;2023-05-16T01:44:19;14.27;;;14.27;;
79751;SDS011;69234;47.446;21.636;2023-05-16T01:44:59;14.30;;;13.90;;
79751;SDS011;69234;47.446;21.636;2023-05-16T01:45:44;14.07;;;14.07;;
79751;SDS011;69234;47.446;21.636;2023-05-16T01:46:27;14.03;;;14.03;;
79751;SDS011;69234;47.446;21.636;2023-05-16T01:47:08;15.10;;;15.10;;
79751;SDS011;69234;47.446;21.636;2023-05-16T01:47:44;14.03;;;14.03;;
79751;SDS011;69234;47.446;21.636;2023-05-16T01:48:26;13.97;;;13.97;;
79751;SDS011;69234;47.446;21.636;2023-05-16T01:49:19;14.03;;;14.03;;
79751;SDS011;69234;47.446;21.636;2023-05-16T01:50:14;14.33;;;14.33;;
79751;SDS011;69234;47.446;21.636;2023-05-16T01:50:48;14.43;;;14.43;;
79751;SDS011;69234;47.446;21.636;2023-05-16T01:51:26;14.47;;;14.40;;
79751;SDS011;69234;47.446;21.636;2023-05-16T01:52:10;14.37;;;14.37;;
79751;SDS011;69234;47.446;21.636;2023-05-16T01:52:59;14.07;;;14.03;;
79751;SDS011;69234;47.446;21.636;2023-05-16T01:53:40;14.80;;;14.67;;
79751;SDS011;69234;47.446;21.636;2023-05-16T01:54:16;14.03;;;14.03;;
79751;SDS011;69234;47.446;21.636;2023-05-16T01:54:49;14.27;;;14.27;;
79751;SDS011;69234;47.446;21.636;2023-05-16T01:56:14;14.30;;;14.30;;
79751;SDS011;69234;47.446;21.636;2023-05-16T01:56:49;15.50;;;15.03;;
79751;SDS011;69234;47.446;21.636;2023-05-16T01:57:23;15.97;;;15.50;;
79751;SDS011;69234;47.446;21.636;2023-05-16T01:57:57;15.13;;;15.07;;
79751;SDS011;69234;47.446;21.636;2023-05-16T01:58:30;14.47;;;14.43;;
79751;SDS011;69234;47.446;21.636;2023-05-16T01:59:03;14.80;;;14.80;;
79751;SDS011;69234;47.446;21.636;2023-05-16T01:59:36;15.00;;;15.00;;
79751;SDS011;69234;47.446;21.636;2023-05-16T02:00:09;14.87;;;14.87;;
79751;SDS011;69234;47.446;21.636;2023-05-16T02:00:44;15.27;;;15.27;;
79751;SDS011;69234;47.446;21.636;2023-05-16T02:01:15;15.10;;;15.03;;
79751;SDS011;69234;47.446;21.636;2023-05-16T02:01:46;14.33;;;14.33;;
79751;SDS011;69234;47.446;21.636;2023-05-16T02:02:17;14.83;;;14.77;;
79751;SDS011;69234;47.446;21.636;2023-05-16T02:02:48;14.33;;;14.30;;
79751;SDS011;69234;47.446;21.636;2023-05-16T02:03:20;14.93;;;14.93;;
79751;SDS011;69234;47.446;21.636;2023-05-16T02:03:51;14.97;;;14.97;;
79751;SDS011;69234;47.446;21.636;2023-05-16T02:04:22;15.40;;;15.40;;
79751;SDS011;69234;47.446;21.636;2023-05-16T02:04:53;15.03;;;15.03;;
79751;SDS011;69234;47.446;21.636;2023-05-16T02:05:24;14.10;;;14.10;;
79751;SDS011;69234;47.446;21.636;2023-05-16T02:05:55;14.30;;;14.27;;
79751;SDS011;69234;47.446;21.636;2023-05-16T02:06:26;15.50;;;15.47;;
79751;SDS011;69234;47.446;21.636;2023-05-16T02:06:58;14.80;;;14.80;;
79751;SDS011;69234;47.446;21.636;2023-05-16T02:07:30;14.83;;;14.83;;
79751;SDS011;69234;47.446;21.636;2023-05-16T02:08:02;14.53;;;14.53;;
79751;SDS011;69234;47.446;21.636;2023-05-16T02:08:33;14.80;;;14.80;;
79751;SDS011;69234;47.446;21.636;2023-05-16T02:09:04;14.37;;;14.37;;
79751;SDS011;69234;47.446;21.636;2023-05-16T02:09:35;14.97;;;14.97;;
79751;SDS011;69234;47.446;21.636;2023-05-16T02:10:06;14.73;;;14.70;;
79751;SDS011;69234;47.446;21.636;2023-05-16T02:10:38;15.70;;;15.20;;
79751;SDS011;69234;47.446;21.636;2023-05-16T02:11:10;15.73;;;15.17;;
79751;SDS011;69234;47.446;21.636;2023-05-16T02:11:41;14.83;;;14.83;;
79751;SDS011;69234;47.446;21.636;2023-05-16T02:12:11;15.43;;;15.43;;
79751;SDS011;69234;47.446;21.636;2023-05-16T02:12:42;14.80;;;14.80;;
79751;SDS011;69234;47.446;21.636;2023-05-16T02:13:14;14.70;;;14.70;;
79751;SDS011;69234;47.446;21.636;2023-05-16T02:13:44;15.03;;;15.03;;
79751;SDS011;69234;47.446;21.636;2023-05-16T02:14:15;15.13;;;15.13;;
79751;SDS011;69234;47.446;21.636;2023-05-16T02:14:46;15.97;;;15.97;;
79751;SDS011;69234;47.446;21.636;2023-05-16T02:15:17;16.00;;;16.00;;
79751;SDS011;69234;47.446;21.636;2023-05-16T02:15:48;14.97;;;14.97;;
79751;SDS011;69234;47.446;21.636;2023-05-16T02:16:19;15.17;;;15.17;;
79751;SDS011;69234;47.446;21.636;2023-05-16T02:16:49;15.10;;;15.03;;
79751;SDS011;69234;47.446;21.636;2023-05-16T02:17:20;15.67;;;15.57;;
79751;SDS011;69234;47.446;21.636;2023-05-16T02:17:51;15.70;;;15.57;;
79751;SDS011;69234;47.446;21.636;2023-05-16T02:18:22;15.60;;;15.40;;
79751;SDS011;69234;47.446;21.636;2023-05-16T02:18:53;15.40;;;15.07;;
79751;SDS011;69234;47.446;21.636;2023-05-16T02:19:23;15.97;;;15.87;;
79751;SDS011;69234;47.446;21.636;2023-05-16T02:19:54;15.80;;;15.77;;
79751;SDS011;69234;47.446;21.636;2023-05-16T02:20:25;15.30;;;15.30;;
79751;SDS011;69234;47.446;21.636;2023-05-16T02:20:56;14.90;;;14.90;;
79751;SDS011;69234;47.446;21.636;2023-05-16T02:21:26;14.80;;;14.80;;
79751;SDS011;69234;47.446;21.636;2023-05-16T02:21:57;15.13;;;15.13;;
79751;SDS011;69234;47.446;21.636;2023-05-16T02:22:28;15.20;;;15.20;;
79751;SDS011;69234;47.446;21.636;2023-05-16T02:22:58;14.00;;;14.00;;
79751;SDS011;69234;47.446;21.636;2023-05-16T02:23:29;15.40;;;15.40;;
79751;SDS011;69234;47.446;21.636;2023-05-16T02:24:00;15.07;;;15.07;;
79751;SDS011;69234;47.446;21.636;2023-05-16T02:24:31;14.73;;;14.73;;
79751;SDS011;69234;47.446;21.636;2023-05-16T02:25:02;15.53;;;15.53;;
79751;SDS011;69234;47.446;21.636;2023-05-16T02:25:33;14.63;;;14.63;;
79751;SDS011;69234;47.446;21.636;2023-05-16T02:26:04;15.10;;;14.97;;
79751;SDS011;69234;47.446;21.636;2023-05-16T02:26:34;16.23;;;15.70;;
79751;SDS011;69234;47.446;21.636;2023-05-16T02:27:05;15.93;;;15.43;;
79751;SDS011;69234;47.446;21.636;2023-05-16T02:27:36;15.57;;;15.47;;
79751;SDS011;69234;47.446;21.636;2023-05-16T02:28:07;16.10;;;16.07;;
79751;SDS011;69234;47.446;21.636;2023-05-16T02:28:37;15.07;;;15.07;;
79751;SDS011;69234;47.446;21.636;2023-05-16T02:29:08;16.60;;;16.20;;
79751;SDS011;69234;47.446;21.636;2023-05-16T02:29:39;17.10;;;16.43;;
79751;SDS011;69234;47.446;21.636;2023-05-16T02:30:10;15.37;;;15.33;;
79751;SDS011;69234;47.446;21.636;2023-05-16T02:30:42;15.23;;;15.17;;
79751;SDS011;69234;47.446;21.636;2023-05-16T02:31:12;14.93;;;14.73;;
79751;SDS011;69234;47.446;21.636;2023-05-16T02:31:43;14.37;;;14.37;;
79751;SDS011;69234;47.446;21.636;2023-05-16T02:32:14;14.90;;;14.90;;
79751;SDS011;69234;47.446;21.636;2023-05-16T02:32:45;15.37;;;15.37;;
79751;SDS011;69234;47.446;21.636;2023-05-16T02:33:15;15.37;;;15.37;;
79751;SDS011;69234;47.446;21.636;2023-05-16T02:33:46;14.93;;;14.93;;
79751;SDS011;69234;47.446;21.636;2023-05-16T02:34:17;15.13;;;15.13;;
79751;SDS011;69234;47.446;21.636;2023-05-16T02:34:48;15.67;;;15.63;;
79751;SDS011;69234;47.446;21.636;2023-05-16T02:35:21;15.60;;;15.60;;
79751;SDS011;69234;47.446;21.636;2023-05-16T02:35:52;15.47;;;15.47;;
79751;SDS011;69234;47.446;21.636;2023-05-16T02:36:24;15.30;;;15.30;;
79751;SDS011;69234;47.446;21.636;2023-05-16T02:36:55;15.33;;;15.33;;
79751;SDS011;69234;47.446;21.636;2023-05-16T02:37:26;15.30;;;15.20;;
79751;SDS011;69234;47.446;21.636;2023-05-16T02:37:57;15.27;;;15.27;;
79751;SDS011;69234;47.446;21.636;2023-05-16T02:38:28;14.73;;;14.73;;
79751;SDS011;69234;47.446;21.636;2023-05-16T02:38:59;15.40;;;15.40;;
79751;SDS011;69234;47.446;21.636;2023-05-16T02:39:30;15.87;;;15.87;;
79751;SDS011;69234;47.446;21.636;2023-05-16T02:40:02;16.10;;;16.03;;
79751;SDS011;69234;47.446;21.636;2023-05-16T02:40:36;15.93;;;15.93;;
79751;SDS011;69234;47.446;21.636;2023-05-16T02:41:07;15.90;;;15.90;;
79751;SDS011;69234;47.446;21.636;2023-05-16T02:41:38;16.10;;;16.10;;
79751;SDS011;69234;47.446;21.636;2023-05-16T02:42:09;15.57;;;15.57;;
79751;SDS011;69234;47.446;21.636;2023-05-16T02:42:40;15.83;;;15.80;;
79751;SDS011;69234;47.446;21.636;2023-05-16T02:43:11;16.13;;;15.83;;
79751;SDS011;69234;47.446;21.636;2023-05-16T02:43:41;16.13;;;16.13;;
79751;SDS011;69234;47.446;21.636;2023-05-16T02:44:13;16.03;;;16.03;;
79751;SDS011;69234;47.446;21.636;2023-05-16T02:44:45;15.67;;;15.63;;
79751;SDS011;69234;47.446;21.636;2023-05-16T02:45:15;15.67;;;15.63;;
79751;SDS011;69234;47.446;21.636;2023-05-16T02:45:47;16.40;;;16.07;;
79751;SDS011;69234;47.446;21.636;2023-05-16T02:46:29;15.37;;;15.37;;
79751;SDS011;69234;47.446;21.636;2023-05-16T02:47:03;15.53;;;15.53;;
79751;SDS011;69234;47.446;21.636;2023-05-16T02:47:34;16.03;;;15.97;;
79751;SDS011;69234;47.446;21.636;2023-05-16T02:48:05;16.97;;;16.97;;
79751;SDS011;69234;47.446;21.636;2023-05-16T02:48:36;16.43;;;16.30;;
79751;SDS011;69234;47.446;21.636;2023-05-16T02:49:07;16.17;;;16.10;;
79751;SDS011;69234;47.446;21.636;2023-05-16T02:49:37;16.10;;;16.10;;
79751;SDS011;69234;47.446;21.636;2023-05-16T02:50:08;17.30;;;17.30;;
79751;SDS011;69234;47.446;21.636;2023-05-16T02:50:39;16.57;;;16.53;;
79751;SDS011;69234;47.446;21.636;2023-05-16T02:51:11;17.73;;;17.00;;
79751;SDS011;69234;47.446;21.636;2023-05-16T02:51:42;17.83;;;17.00;;
79751;SDS011;69234;47.446;21.636;2023-05-16T02:52:13;17.30;;;16.87;;
79751;SDS011;69234;47.446;21.636;2023-05-16T02:52:43;16.23;;;15.70;;
79751;SDS011;69234;47.446;21.636;2023-05-16T02:53:14;15.83;;;15.83;;
79751;SDS011;69234;47.446;21.636;2023-05-16T02:53:45;16.03;;;16.03;;
79751;SDS011;69234;47.446;21.636;2023-05-16T02:54:16;16.03;;;16.03;;
79751;SDS011;69234;47.446;21.636;2023-05-16T02:54:47;15.77;;;15.77;;
79751;SDS011;69234;47.446;21.636;2023-05-16T02:55:18;15.30;;;15.20;;
79751;SDS011;69234;47.446;21.636;2023-05-16T02:55:49;14.80;;;14.77;;
79751;SDS011;69234;47.446;21.636;2023-05-16T02:56:19;15.77;;;15.77;;
79751;SDS011;69234;47.446;21.636;2023-05-16T02:56:50;15.47;;;15.47;;
79751;SDS011;69234;47.446;21.636;2023-05-16T02:57:23;16.37;;;16.20;;
79751;SDS011;69234;47.446;21.636;2023-05-16T02:57:53;17.17;;;16.73;;
79751;SDS011;69234;47.446;21.636;2023-05-16T02:58:24;16.93;;;16.60;;
79751;SDS011;69234;47.446;21.636;2023-05-16T02:58:55;16.37;;;16.37;;
79751;SDS011;69234;47.446;21.636;2023-05-16T02:59:26;16.53;;;16.53;;
79751;SDS011;69234;47.446;21.636;2023-05-16T02:59:56;16.33;;;16.33;;
79751;SDS011;69234;47.446;21.636;2023-05-16T03:00:28;15.30;;;15.30;;
79751;SDS011;69234;47.446;21.636;2023-05-16T03:00:59;16.70;;;16.63;;
79751;SDS011;69234;47.446;21.636;2023-05-16T03:01:30;16.80;;;16.80;;
79751;SDS011;69234;47.446;21.636;2023-05-16T03:02:01;15.83;;;15.83;;
79751;SDS011;69234;47.446;21.636;2023-05-16T03:02:32;15.83;;;15.83;;
79751;SDS011;69234;47.446;21.636;2023-05-16T03:03:03;15.43;;;15.43;;
79751;SDS011;69234;47.446;21.636;2023-05-16T03:03:36;16.23;;;16.20;;
79751;SDS011;69234;47.446;21.636;2023-05-16T03:04:07;16.93;;;16.93;;
79751;SDS011;69234;47.446;21.636;2023-05-16T03:04:38;16.13;;;16.13;;
79751;SDS011;69234;47.446;21.636;2023-05-16T03:05:09;15.47;;;15.47;;
79751;SDS011;69234;47.446;21.636;2023-05-16T03:05:40;15.43;;;15.43;;
79751;SDS011;69234;47.446;21.636;2023-05-16T03:06:11;16.37;;;16.37;;
79751;SDS011;69234;47.446;21.636;2023-05-16T03:06:42;15.60;;;15.60;;
79751;SDS011;69234;47.446;21.636;2023-05-16T03:07:13;16.37;;;16.37;;
79751;SDS011;69234;47.446;21.636;2023-05-16T03:07:44;16.13;;;16.13;;
79751;SDS011;69234;47.446;21.636;2023-05-16T03:08:15;15.90;;;15.90;;
79751;SDS011;69234;47.446;21.636;2023-05-16T03:08:46;16.03;;;16.03;;
79751;SDS011;69234;47.446;21.636;2023-05-16T03:09:17;16.87;;;16.87;;
79751;SDS011;69234;47.446;21.636;2023-05-16T03:09:48;16.67;;;16.67;;
79751;SDS011;69234;47.446;21.636;2023-05-16T03:10:19;16.40;;;16.40;;
79751;SDS011;69234;47.446;21.636;2023-05-16T03:10:50;16.07;;;16.07;;
79751;SDS011;69234;47.446;21.636;2023-05-16T03:11:20;16.80;;;16.80;;
79751;SDS011;69234;47.446;21.636;2023-05-16T03:11:55;16.50;;;16.50;;
79751;SDS011;69234;47.446;21.636;2023-05-16T03:12:25;16.27;;;16.27;;
79751;SDS011;69234;47.446;21.636;2023-05-16T03:12:56;16.87;;;16.87;;
79751;SDS011;69234;47.446;21.636;2023-05-16T03:13:27;16.80;;;16.80;;
79751;SDS011;69234;47.446;21.636;2023-05-16T03:14:02;16.30;;;16.30;;
79751;SDS011;69234;47.446;21.636;2023-05-16T03:14:32;16.83;;;16.83;;
79751;SDS011;69234;47.446;21.636;2023-05-16T03:15:03;17.00;;;17.00;;
79751;SDS011;69234;47.446;21.636;2023-05-16T03:15:35;17.07;;;17.03;;
79751;SDS011;69234;47.446;21.636;2023-05-16T03:16:06;17.23;;;17.23;;
79751;SDS011;69234;47.446;21.636;2023-05-16T03:16:37;17.40;;;17.40;;
79751;SDS011;69234;47.446;21.636;2023-05-16T03:17:08;17.03;;;17.03;;
79751;SDS011;69234;47.446;21.636;2023-05-16T03:17:38;17.10;;;17.10;;
79751;SDS011;69234;47.446;21.636;2023-05-16T03:18:09;18.07;;;17.93;;
79751;SDS011;69234;47.446;21.636;2023-05-16T03:18:41;18.47;;;18.17;;
79751;SDS011;69234;47.446;21.636;2023-05-16T03:19:12;18.00;;;17.73;;
79751;SDS011;69234;47.446;21.636;2023-05-16T03:19:43;18.03;;;17.90;;
79751;SDS011;69234;47.446;21.636;2023-05-16T03:20:13;18.53;;;18.53;;